createdAt,value
2023-01-28T00:01:11.027Z,4.09
2023-01-28T00:03:38.405Z,4.05
2023-01-28T00:06:08.121Z,3.79
2023-01-28T00:08:35.643Z,4.00
2023-01-28T00:11:04.873Z,4.06
2023-01-28T00:13:33.175Z,4.07
2023-01-28T00:16:03.064Z,3.64
2023-01-28T00:18:55.870Z,3.98
2023-01-28T00:21:23.012Z,3.90
2023-01-28T00:23:55.540Z,3.95
2023-01-28T00:26:25.342Z,3.57
2023-01-28T00:28:52.370Z,3.93
2023-01-28T00:44:16.454Z,3.59
2023-01-28T00:46:43.402Z,3.62
2023-01-28T00:52:05.482Z,3.55
2023-01-28T00:54:32.547Z,2.99
2023-01-28T00:57:00.361Z,3.41
2023-01-28T00:59:28.001Z,3.83
2023-01-28T01:02:51.085Z,3.78
2023-01-28T02:24:42.750Z,3.47
2023-01-28T02:27:15.701Z,3.44
2023-01-28T02:30:35.797Z,3.48
2023-01-28T02:33:15.617Z,3.06
2023-01-28T02:35:51.014Z,3.34
2023-01-28T02:38:31.239Z,3.05
2023-01-28T02:41:06.661Z,3.18
2023-01-28T02:43:36.538Z,3.35
2023-01-28T02:46:30.225Z,3.39
2023-01-28T02:48:57.606Z,3.12
2023-01-28T02:51:48.804Z,2.88
2023-01-28T02:54:37.712Z,3.14
2023-01-28T02:57:27.936Z,3.12
2023-01-28T03:00:02.699Z,3.01
2023-01-28T03:02:51.106Z,2.92
2023-01-28T03:05:36.624Z,2.66
2023-01-28T03:08:28.151Z,2.74
2023-01-28T03:11:17.463Z,3.17
2023-01-28T03:14:05.119Z,3.19
2023-01-28T03:16:52.909Z,2.83
2023-01-28T03:19:40.916Z,3.02
2023-01-28T03:22:27.246Z,3.03
2023-01-28T03:25:13.675Z,2.82
2023-01-28T03:28:22.490Z,3.03
2023-01-28T03:31:19.220Z,2.68
2023-01-28T03:34:13.425Z,2.68
2023-01-28T03:36:55.936Z,3.07
2023-01-28T03:39:32.361Z,2.70
2023-01-28T03:42:05.769Z,3.06
2023-01-28T03:44:52.786Z,2.63
2023-01-28T03:47:29.240Z,2.77
2023-01-28T03:49:59.795Z,2.80
2023-01-28T03:52:32.138Z,2.72
2023-01-28T03:55:37.703Z,2.77
2023-01-28T03:58:08.450Z,2.80
2023-01-28T04:00:42.205Z,2.99
2023-01-28T04:03:17.356Z,3.03
2023-01-28T04:06:03.066Z,3.02
2023-01-28T04:08:59.594Z,3.00
2023-01-28T04:11:53.036Z,2.62
2023-01-28T04:14:28.231Z,2.31
2023-01-28T04:17:10.826Z,2.68
2023-01-28T04:19:38.835Z,3.01
2023-01-28T04:22:10.124Z,3.05
2023-01-28T04:24:37.363Z,3.01
2023-01-28T04:27:04.995Z,2.61
2023-01-28T04:29:32.018Z,2.81
2023-01-28T04:32:11.587Z,2.84
2023-01-28T04:35:08.058Z,2.62
2023-01-28T04:37:53.297Z,2.87
2023-01-28T04:40:41.416Z,2.83
2023-01-28T04:43:23.659Z,2.58
2023-01-28T04:45:54.349Z,2.96
2023-01-28T04:48:41.660Z,2.86
2023-01-28T04:51:17.835Z,2.81
2023-01-28T04:53:54.167Z,2.56
2023-01-28T04:56:30.470Z,2.78
2023-01-28T04:58:57.546Z,2.91
2023-01-28T05:01:25.270Z,2.93
2023-01-28T05:03:53.225Z,2.57
2023-01-28T05:06:27.711Z,2.85
2023-01-28T05:08:57.215Z,2.77
2023-01-28T05:11:24.983Z,2.68
2023-01-28T05:13:57.534Z,2.64
2023-01-28T05:16:28.946Z,2.34
2023-01-28T05:18:56.375Z,2.84
2023-01-28T05:21:23.764Z,2.62
2023-01-28T05:23:58.452Z,2.62
2023-01-28T05:26:25.448Z,2.77
2023-01-28T05:28:52.491Z,2.77
2023-01-28T05:31:19.565Z,2.56
2023-01-28T05:33:46.560Z,2.53
2023-01-28T05:36:14.676Z,2.57
2023-01-28T05:38:41.777Z,2.61
2023-01-28T05:41:08.948Z,2.31
2023-01-28T05:43:36.952Z,2.45
2023-01-28T05:46:27.848Z,2.50
2023-01-28T05:49:12.471Z,2.77
2023-01-28T05:52:11.730Z,2.59
2023-01-28T05:54:39.276Z,2.67
2023-01-28T05:57:06.822Z,2.58
2023-01-28T05:59:33.845Z,2.35
2023-01-28T06:02:01.567Z,2.51
2023-01-28T06:04:28.657Z,2.79
2023-01-28T06:06:55.655Z,2.70
2023-01-28T06:09:22.813Z,2.88
2023-01-28T06:11:51.254Z,2.90
2023-01-28T06:14:18.792Z,2.84
2023-01-28T06:17:04.052Z,2.82
2023-01-28T06:20:08.627Z,2.86
2023-01-28T06:22:37.686Z,2.75
2023-01-28T06:25:05.313Z,2.56
2023-01-28T06:27:33.085Z,2.57
2023-01-28T06:30:00.173Z,2.54
2023-01-28T06:32:27.366Z,2.22
2023-01-28T06:34:54.542Z,2.03
2023-01-28T06:37:21.533Z,2.14
2023-01-28T06:39:48.477Z,2.49
2023-01-28T06:42:15.485Z,2.56
2023-01-28T06:44:42.532Z,2.45
2023-01-28T06:47:11.026Z,2.89
2023-01-28T06:49:38.169Z,2.49
2023-01-28T06:52:05.273Z,2.50
2023-01-28T06:54:32.224Z,2.84
2023-01-28T06:56:59.594Z,2.36
2023-01-28T06:59:27.131Z,2.41
2023-01-28T07:01:54.378Z,2.81
2023-01-28T07:04:21.409Z,2.93
2023-01-28T07:06:48.385Z,2.80
2023-01-28T07:09:15.627Z,2.91
2023-01-28T07:11:42.707Z,2.92
2023-01-28T07:14:09.706Z,2.62
2023-01-28T07:16:36.644Z,2.96
2023-01-28T07:19:03.661Z,2.60
2023-01-28T07:21:30.684Z,3.02
2023-01-28T07:23:58.201Z,2.54
2023-01-28T07:26:25.187Z,2.54
2023-01-28T07:28:52.198Z,3.09
2023-01-28T07:31:19.299Z,2.60
2023-01-28T07:33:46.379Z,3.02
2023-01-28T07:36:13.316Z,2.95
2023-01-28T07:38:40.258Z,2.82
2023-01-28T07:41:07.512Z,3.13
2023-01-28T07:43:34.474Z,2.90
2023-01-28T07:46:02.435Z,3.13
2023-01-28T07:48:29.476Z,3.10
2023-01-28T07:50:59.820Z,2.77
2023-01-28T07:53:26.865Z,3.01
2023-01-28T07:55:59.712Z,3.21
2023-01-28T07:58:26.632Z,3.06
2023-01-28T08:00:57.154Z,3.20
2023-01-28T08:03:24.517Z,2.98
2023-01-28T08:05:53.393Z,3.11
2023-01-28T08:08:20.816Z,2.89
2023-01-28T08:10:47.989Z,3.05
2023-01-28T08:13:16.026Z,3.23
2023-01-28T08:15:43.673Z,3.25
2023-01-28T08:18:13.480Z,3.24
2023-01-28T08:20:41.809Z,3.01
2023-01-28T08:23:12.168Z,3.29
2023-01-28T08:25:39.549Z,3.32
2023-01-28T08:28:07.748Z,3.25
2023-01-28T08:30:35.729Z,3.32
2023-01-28T08:33:02.863Z,3.33
2023-01-28T08:35:30.102Z,3.04
2023-01-28T08:38:00.416Z,3.31
2023-01-28T08:40:28.191Z,2.94
2023-01-28T08:42:55.772Z,2.60
2023-01-28T08:45:27.834Z,3.39
2023-01-28T08:48:04.673Z,3.15
2023-01-28T08:50:33.930Z,3.37
2023-01-28T08:53:04.475Z,3.37
2023-01-28T08:55:33.215Z,3.13
2023-01-28T08:58:03.545Z,3.29
2023-01-28T09:00:30.786Z,3.45
2023-01-28T09:02:57.865Z,3.12
2023-01-28T09:05:24.995Z,3.11
2023-01-28T09:07:53.284Z,3.40
2023-01-28T09:10:22.981Z,3.17
2023-01-28T09:12:50.068Z,3.48
2023-01-28T09:15:17.937Z,3.29
2023-01-28T09:17:44.897Z,3.54
2023-01-28T09:20:13.253Z,3.31
2023-01-28T09:22:40.919Z,3.52
2023-01-28T09:25:08.387Z,3.22
2023-01-28T09:27:35.388Z,3.35
2023-01-28T09:30:02.275Z,3.11
2023-01-28T09:32:29.332Z,3.49
2023-01-28T09:34:56.381Z,3.59
2023-01-28T09:37:23.293Z,3.20
2023-01-28T09:39:50.341Z,3.37
2023-01-28T09:42:19.949Z,3.54
2023-01-28T09:44:59.573Z,3.57
2023-01-28T09:47:29.548Z,3.41
2023-01-28T09:50:00.158Z,2.93
2023-01-28T09:52:30.745Z,3.23
2023-01-28T09:55:06.204Z,3.45
2023-01-28T09:57:45.868Z,3.33
2023-01-28T10:00:23.161Z,3.22
2023-01-28T10:03:08.563Z,3.42
2023-01-28T10:05:57.005Z,3.42
2023-01-28T10:08:38.175Z,3.32
2023-01-28T10:11:05.122Z,3.43
2023-01-28T10:13:47.982Z,3.40
2023-01-28T10:16:43.365Z,3.45
2023-01-28T10:19:18.496Z,3.49
2023-01-28T10:22:20.683Z,3.32
2023-01-28T10:24:53.916Z,3.11
2023-01-28T10:27:24.035Z,3.48
2023-01-28T10:29:52.684Z,2.76
2023-01-28T10:32:45.053Z,3.41
2023-01-28T10:35:12.320Z,3.50
2023-01-28T10:37:40.654Z,3.44
2023-01-28T10:40:13.945Z,3.47
2023-01-28T10:42:44.081Z,3.29
2023-01-28T10:45:22.187Z,3.05
2023-01-28T10:48:04.723Z,3.43
2023-01-28T10:50:32.411Z,3.18
2023-01-28T10:53:03.103Z,3.34
2023-01-28T10:55:34.891Z,3.10
2023-01-28T10:58:05.447Z,3.06
2023-01-28T11:00:37.396Z,3.25
2023-01-28T11:03:04.483Z,2.85
2023-01-28T11:05:32.166Z,3.09
2023-01-28T11:08:12.659Z,2.99
2023-01-28T11:10:40.670Z,3.31
2023-01-28T11:13:25.496Z,3.00
2023-01-28T11:16:03.166Z,2.79
2023-01-28T11:18:36.605Z,3.34
2023-01-28T11:21:06.763Z,3.38
2023-01-28T11:24:02.841Z,2.94
2023-01-28T11:26:33.345Z,3.20
2023-01-28T11:29:00.447Z,3.45
2023-01-28T11:31:29.042Z,3.42
2023-01-28T11:34:01.973Z,3.39
2023-01-28T11:36:31.040Z,3.45
2023-01-28T11:39:00.749Z,3.43
2023-01-28T11:41:39.159Z,3.46
2023-01-28T11:44:21.922Z,3.30
2023-01-28T11:46:57.827Z,3.39
2023-01-28T11:49:42.866Z,3.43
2023-01-28T11:52:19.069Z,3.39
2023-01-28T11:55:30.434Z,3.18
2023-01-28T11:58:13.551Z,3.38
2023-01-28T12:01:02.039Z,3.41
2023-01-28T12:03:47.510Z,3.41
2023-01-28T12:06:37.737Z,3.40
2023-01-28T12:09:32.360Z,3.36
2023-01-28T12:12:42.709Z,3.29
2023-01-28T12:15:24.890Z,3.20
2023-01-28T12:18:10.222Z,3.30
2023-01-28T12:20:53.148Z,3.34
2023-01-28T12:23:41.114Z,2.56
2023-01-28T12:26:10.993Z,3.28
2023-01-28T12:28:50.089Z,3.31
2023-01-28T12:31:52.609Z,3.23
2023-01-28T12:34:48.682Z,2.97
2023-01-28T12:37:27.981Z,3.19
2023-01-28T12:40:22.642Z,3.06
2023-01-28T12:42:57.929Z,2.95
2023-01-28T12:45:45.598Z,2.18
2023-01-28T12:48:22.499Z,2.81
2023-01-28T12:50:54.739Z,2.78
2023-01-28T12:53:30.482Z,3.03
2023-01-28T12:56:07.188Z,2.32
2023-01-28T12:58:43.927Z,2.77
2023-01-28T13:01:21.483Z,2.32
2023-01-28T13:04:06.882Z,3.01
2023-01-28T13:06:41.414Z,2.99
2023-01-28T13:09:28.984Z,3.08
2023-01-28T13:12:00.100Z,3.11
2023-01-28T13:14:33.631Z,2.91
2023-01-28T13:17:25.367Z,2.75
2023-01-28T13:19:52.409Z,2.92
2023-01-28T13:22:36.652Z,3.09
2023-01-28T13:25:25.163Z,2.85
2023-01-28T13:28:04.374Z,2.96
2023-01-28T13:30:49.580Z,3.08
2023-01-28T13:33:30.119Z,3.14
2023-01-28T13:35:58.292Z,3.10
2023-01-28T13:38:25.594Z,2.57
2023-01-28T13:41:01.362Z,2.71
2023-01-28T13:43:28.477Z,3.14
2023-01-28T13:45:58.132Z,2.96
2023-01-28T13:48:52.253Z,3.18
2023-01-28T13:51:37.766Z,2.92
2023-01-28T13:54:08.673Z,3.08
2023-01-28T13:57:02.911Z,3.01
2023-01-28T13:59:42.100Z,3.09
2023-01-28T14:02:46.164Z,3.05
2023-01-28T14:05:39.634Z,2.84
2023-01-28T14:08:39.052Z,2.72
2023-01-28T14:11:21.089Z,2.99
2023-01-28T14:14:12.915Z,2.94
2023-01-28T14:16:52.187Z,2.97
2023-01-28T14:19:26.859Z,2.82
2023-01-28T14:21:54.012Z,2.45
2023-01-28T14:24:21.046Z,2.84
2023-01-28T14:27:02.066Z,2.85
2023-01-28T14:30:10.936Z,2.88
2023-01-28T14:32:47.159Z,2.88
2023-01-28T14:35:23.183Z,2.89
2023-01-28T14:37:52.303Z,2.87
2023-01-28T14:40:21.212Z,2.52
2023-01-28T14:42:53.293Z,2.78
2023-01-28T14:45:38.618Z,2.55
2023-01-28T14:48:26.540Z,2.88
2023-01-28T14:51:07.288Z,2.86
2023-01-28T14:53:48.303Z,2.85
2023-01-28T14:56:21.135Z,2.86
2023-01-28T14:58:57.304Z,2.53
2023-01-28T15:01:27.877Z,2.86
2023-01-28T15:03:55.318Z,2.47
2023-01-28T15:06:25.362Z,2.54
2023-01-28T15:08:53.752Z,2.86
2023-01-28T15:11:26.819Z,2.61
2023-01-28T15:13:57.256Z,2.84
2023-01-28T15:16:31.591Z,2.73
2023-01-28T15:19:01.730Z,2.83
2023-01-28T15:21:30.512Z,2.77
2023-01-28T15:24:00.361Z,2.79
2023-01-28T15:26:37.066Z,2.81
2023-01-28T15:29:04.329Z,2.58
2023-01-28T15:31:34.699Z,2.79
2023-01-28T15:34:03.121Z,2.77
2023-01-28T15:36:31.775Z,2.45
2023-01-28T15:38:59.093Z,2.39
2023-01-28T15:41:34.111Z,2.67
2023-01-28T15:44:01.542Z,2.61
2023-01-28T15:46:28.585Z,2.29
2023-01-28T15:49:01.143Z,2.68
2023-01-28T15:51:34.083Z,2.32
2023-01-28T15:54:05.665Z,2.53
2023-01-28T15:56:33.222Z,2.43
2023-01-28T15:59:24.854Z,2.62
2023-01-28T16:01:52.896Z,2.58
2023-01-28T16:04:27.185Z,2.36
2023-01-28T16:06:56.507Z,2.28
2023-01-28T16:09:28.817Z,2.46
2023-01-28T16:12:07.643Z,2.43
2023-01-28T16:14:46.606Z,2.58
2023-01-28T16:17:19.820Z,2.58
2023-01-28T16:19:55.440Z,2.10
2023-01-28T16:22:27.866Z,2.11
2023-01-28T16:24:54.998Z,2.54
2023-01-28T16:27:27.981Z,2.12
2023-01-28T16:29:55.517Z,2.26
2023-01-28T16:32:35.869Z,2.22
2023-01-28T16:35:04.707Z,2.02
2023-01-28T16:37:31.659Z,2.21
2023-01-28T16:40:00.393Z,2.19
2023-01-28T16:42:29.103Z,2.26
2023-01-28T16:44:56.039Z,2.42
2023-01-28T16:47:23.168Z,2.41
2023-01-28T16:49:50.353Z,2.02
2023-01-28T16:52:18.675Z,2.38
2023-01-28T16:54:45.789Z,2.36
2023-01-28T16:57:19.041Z,2.37
2023-01-28T16:59:46.276Z,2.36
2023-01-28T17:02:14.989Z,2.16
2023-01-28T17:04:42.162Z,1.83
2023-01-28T17:07:09.930Z,1.95
2023-01-28T17:09:37.117Z,2.15
2023-01-28T17:12:04.429Z,2.18
2023-01-28T17:14:31.528Z,1.92
2023-01-28T17:16:58.512Z,1.84
2023-01-28T17:19:25.693Z,1.81
2023-01-28T17:21:52.654Z,1.92
2023-01-28T17:24:19.734Z,1.95
2023-01-28T17:26:46.719Z,1.70
2023-01-28T17:29:13.723Z,1.64
2023-01-28T17:31:40.913Z,1.79
2023-01-28T17:34:08.351Z,1.85
2023-01-28T17:36:35.531Z,1.91
2023-01-28T17:39:02.848Z,1.77
2023-01-28T17:41:29.872Z,1.58
2023-01-28T17:43:57.448Z,1.48
2023-01-28T17:46:25.945Z,1.73
2023-01-28T17:48:53.570Z,0.66
2023-01-28T17:51:20.574Z,1.42
2023-01-28T17:53:53.092Z,1.31
2023-01-28T17:56:27.037Z,1.27
2023-01-28T17:58:56.787Z,1.20
2023-01-28T18:01:25.236Z,1.07
2023-01-28T18:03:52.496Z,1.09
2023-01-28T18:06:19.823Z,1.33
2023-01-28T18:08:47.002Z,1.33
2023-01-28T18:11:17.480Z,1.38
2023-01-28T18:13:44.998Z,1.38
2023-01-28T18:16:16.049Z,1.10
2023-01-28T18:18:44.412Z,1.32
2023-01-28T18:21:22.740Z,1.18
2023-01-28T18:23:52.661Z,1.24
2023-01-28T18:26:19.826Z,0.80
2023-01-28T18:28:47.074Z,1.27
2023-01-28T18:31:14.179Z,1.00
2023-01-28T18:33:41.390Z,0.81
2023-01-28T18:36:09.329Z,0.92
2023-01-28T18:38:36.401Z,0.85
2023-01-28T18:41:03.619Z,0.65
2023-01-28T18:43:32.782Z,0.72
2023-01-28T18:46:00.434Z,1.08
2023-01-28T18:48:27.585Z,0.65
2023-01-28T18:50:56.080Z,0.90
2023-01-28T18:53:23.158Z,0.99
2023-01-28T18:55:50.187Z,0.87
2023-01-28T18:58:17.259Z,0.78
2023-01-28T19:00:44.470Z,1.07
2023-01-28T19:03:11.513Z,1.03
2023-01-28T19:05:40.046Z,1.06
2023-01-28T19:08:09.152Z,0.94
2023-01-28T19:10:36.273Z,1.16
2023-01-28T19:13:03.536Z,1.11
2023-01-28T19:15:31.087Z,0.71
2023-01-28T19:17:58.339Z,0.88
2023-01-28T19:20:25.603Z,0.92
2023-01-28T19:22:52.864Z,1.18
2023-01-28T19:25:19.952Z,1.12
2023-01-28T19:27:46.993Z,1.05
2023-01-28T19:30:13.982Z,0.97
2023-01-28T19:32:41.098Z,0.83
2023-01-28T19:35:08.143Z,1.17
2023-01-28T19:37:35.193Z,1.20
2023-01-28T19:40:02.356Z,1.24
2023-01-28T19:42:30.201Z,1.26
2023-01-28T19:44:57.094Z,1.12
2023-01-28T19:47:24.182Z,1.34
2023-01-28T19:49:51.407Z,1.16
2023-01-28T19:52:18.672Z,1.33
2023-01-28T19:54:47.351Z,0.96
2023-01-28T19:57:14.298Z,1.27
2023-01-28T19:59:41.301Z,0.80
2023-01-28T20:02:10.085Z,1.03
2023-01-28T20:04:38.283Z,0.91
2023-01-28T20:07:07.911Z,1.00
2023-01-28T20:09:34.914Z,0.89
2023-01-28T20:12:02.015Z,0.74
2023-01-28T20:14:29.392Z,0.73
2023-01-28T20:16:56.540Z,1.09
2023-01-28T20:19:23.699Z,0.73
2023-01-28T20:21:52.187Z,0.92
2023-01-28T20:24:19.285Z,0.94
2023-01-28T20:26:46.353Z,0.49
2023-01-28T20:29:18.163Z,0.44
2023-01-28T20:31:46.004Z,1.02
2023-01-28T20:34:18.177Z,0.87
2023-01-28T20:36:46.416Z,0.26
2023-01-28T20:39:14.050Z,0.50
2023-01-28T20:41:41.057Z,0.86
2023-01-28T20:44:08.061Z,0.67
2023-01-28T20:46:36.835Z,0.62
2023-01-28T20:49:06.322Z,1.04
2023-01-28T20:51:35.865Z,1.03
2023-01-28T20:54:04.246Z,0.71
2023-01-28T20:56:35.317Z,0.97
2023-01-28T20:59:04.782Z,1.01
2023-01-28T21:01:34.500Z,0.48
2023-01-28T21:04:02.455Z,0.54
2023-01-28T21:06:29.825Z,0.61
2023-01-28T21:08:57.480Z,0.68
2023-01-28T21:11:26.117Z,0.86
2023-01-28T21:13:54.228Z,0.80
2023-01-28T21:16:22.162Z,0.72
2023-01-28T21:18:52.143Z,0.78
2023-01-28T21:21:24.994Z,0.60
2023-01-28T21:23:54.927Z,0.84
2023-01-28T21:26:22.067Z,0.61
2023-01-28T21:28:49.022Z,0.82
2023-01-28T21:31:25.464Z,0.63
2023-01-28T21:33:55.325Z,0.53
2023-01-28T21:36:23.431Z,0.99
2023-01-28T21:38:58.522Z,0.76
2023-01-28T21:41:26.429Z,0.87
2023-01-28T21:43:54.949Z,0.28
2023-01-28T21:46:25.088Z,0.88
2023-01-28T21:49:02.377Z,0.87
2023-01-28T21:51:35.725Z,0.77
2023-01-28T21:54:06.068Z,0.80
2023-01-28T21:56:33.137Z,0.70
2023-01-28T21:59:18.618Z,0.89
2023-01-28T22:01:46.330Z,0.76
2023-01-28T22:04:13.972Z,0.84
2023-01-28T22:06:42.579Z,0.72
2023-01-28T22:09:14.165Z,0.87
2023-01-28T22:11:43.535Z,0.38
2023-01-28T22:14:11.230Z,1.00
2023-01-28T22:16:38.920Z,0.86
2023-01-28T22:19:06.007Z,0.59
2023-01-28T22:21:33.584Z,0.65
2023-01-28T22:24:00.683Z,0.78
2023-01-28T22:26:27.788Z,0.20
2023-01-28T22:28:54.840Z,0.76
2023-01-28T22:31:22.050Z,0.38
2023-01-28T22:33:49.146Z,0.72
2023-01-28T22:36:16.581Z,0.41
2023-01-28T22:38:45.194Z,0.74
2023-01-28T22:41:19.359Z,0.51
2023-01-28T22:43:46.998Z,0.04
2023-01-28T22:46:14.475Z,0.47
2023-01-28T22:48:41.782Z,0.48
2023-01-28T22:51:25.208Z,0.80
2023-01-28T22:53:52.553Z,0.39
2023-01-28T22:56:23.159Z,0.42
2023-01-28T22:58:54.250Z,0.65
2023-01-28T23:01:21.383Z,0.50
2023-01-28T23:03:50.535Z,0.52
2023-01-28T23:06:20.758Z,0.66
2023-01-28T23:08:48.195Z,0.24
2023-01-28T23:11:16.171Z,0.20
2023-01-28T23:14:02.698Z,0.08
2023-01-28T23:16:49.567Z,0.61
2023-01-28T23:19:35.743Z,0.68
2023-01-28T23:22:21.664Z,0.65
2023-01-28T23:24:48.847Z,0.61
2023-01-28T23:27:15.941Z,0.53
2023-01-28T23:29:43.030Z,0.68
2023-01-28T23:32:15.349Z,0.55
2023-01-28T23:34:44.727Z,0.39
2023-01-28T23:37:13.238Z,0.44
2023-01-28T23:39:41.245Z,0.63
2023-01-28T23:42:16.616Z,0.52
2023-01-28T23:44:44.626Z,0.69
2023-01-28T23:47:11.853Z,0.70
2023-01-28T23:49:39.576Z,0.57
2023-01-28T23:52:08.140Z,0.33
2023-01-28T23:54:35.824Z,0.26
2023-01-28T23:57:03.431Z,0.41
2023-01-28T23:59:30.393Z,0.65
